sensor_id;sensor_type;location;lat;lon;timestamp;pressure;altitude;pressure_sealevel;temperature;humidity
20710;BME280;10516;51.518;9.864;2024-03-22T00:02:15;99334.72;;;8.18;77.78
20710;BME280;10516;51.518;9.864;2024-03-22T00:04:41;99338.53;;;8.47;77.96
20710;BME280;10516;51.518;9.864;2024-03-22T00:07:06;99348.66;;;8.38;77.37
20710;BME280;10516;51.518;9.864;2024-03-22T00:09:32;99338.03;;;8.86;76.47
20710;BME280;10516;51.518;9.864;2024-03-22T00:11:57;99336.97;;;8.87;75.76
20710;BME280;10516;51.518;9.864;2024-03-22T00:14:22;99346.94;;;8.91;75.66
20710;BME280;10516;51.518;9.864;2024-03-22T00:16:48;99334.56;;;8.85;75.45
20710;BME280;10516;51.518;9.864;2024-03-22T00:19:14;99330.00;;;8.74;75.97
20710;BME280;10516;51.518;9.864;2024-03-22T00:21:39;99334.19;;;8.82;75.98
20710;BME280;10516;51.518;9.864;2024-03-22T00:24:04;99324.34;;;8.82;76.01
20710;BME280;10516;51.518;9.864;2024-03-22T00:26:30;99321.56;;;8.77;76.50
20710;BME280;10516;51.518;9.864;2024-03-22T00:28:55;99322.41;;;8.89;75.57
20710;BME280;10516;51.518;9.864;2024-03-22T00:31:23;99307.09;;;8.73;76.21
20710;BME280;10516;51.518;9.864;2024-03-22T00:33:48;99312.69;;;8.83;75.57
20710;BME280;10516;51.518;9.864;2024-03-22T00:36:14;99316.81;;;8.79;76.53
20710;BME280;10516;51.518;9.864;2024-03-22T00:38:39;99316.09;;;8.72;76.65
20710;BME280;10516;51.518;9.864;2024-03-22T00:41:07;99309.59;;;8.68;76.51
20710;BME280;10516;51.518;9.864;2024-03-22T00:43:32;99283.53;;;8.59;76.54
20710;BME280;10516;51.518;9.864;2024-03-22T00:45:57;99304.63;;;8.42;77.17
20710;BME280;10516;51.518;9.864;2024-03-22T00:48:24;99303.13;;;8.76;76.52
20710;BME280;10516;51.518;9.864;2024-03-22T00:50:49;99305.28;;;8.85;76.05
20710;BME280;10516;51.518;9.864;2024-03-22T00:53:14;99272.84;;;8.47;76.02
20710;BME280;10516;51.518;9.864;2024-03-22T00:55:40;99280.75;;;8.54;76.27
20710;BME280;10516;51.518;9.864;2024-03-22T00:58:05;99299.09;;;8.73;76.34
20710;BME280;10516;51.518;9.864;2024-03-22T01:00:31;99277.81;;;8.73;75.17
20710;BME280;10516;51.518;9.864;2024-03-22T01:02:56;99282.81;;;8.81;75.84
20710;BME280;10516;51.518;9.864;2024-03-22T01:05:22;99290.44;;;8.78;75.91
20710;BME280;10516;51.518;9.864;2024-03-22T01:07:47;99280.75;;;8.54;76.19
20710;BME280;10516;51.518;9.864;2024-03-22T01:10:13;99302.13;;;8.77;76.45
20710;BME280;10516;51.518;9.864;2024-03-22T01:12:39;99251.00;;;8.57;75.73
20710;BME280;10516;51.518;9.864;2024-03-22T01:15:05;99277.19;;;8.60;75.80
20710;BME280;10516;51.518;9.864;2024-03-22T01:17:31;99293.78;;;8.73;75.54
20710;BME280;10516;51.518;9.864;2024-03-22T01:19:56;99271.19;;;8.64;75.90
20710;BME280;10516;51.518;9.864;2024-03-22T01:22:22;99275.16;;;8.73;75.33
20710;BME280;10516;51.518;9.864;2024-03-22T01:24:48;99258.31;;;8.61;75.51
20710;BME280;10516;51.518;9.864;2024-03-22T01:27:13;99273.94;;;8.03;77.11
20710;BME280;10516;51.518;9.864;2024-03-22T01:29:39;99284.06;;;8.49;76.77
20710;BME280;10516;51.518;9.864;2024-03-22T01:32:04;99255.69;;;8.07;77.07
20710;BME280;10516;51.518;9.864;2024-03-22T01:34:30;99285.28;;;7.74;79.49
20710;BME280;10516;51.518;9.864;2024-03-22T01:36:55;99265.88;;;7.74;79.50
20710;BME280;10516;51.518;9.864;2024-03-22T01:39:21;99273.81;;;8.16;77.72
20710;BME280;10516;51.518;9.864;2024-03-22T01:41:47;99260.66;;;7.85;79.25
20710;BME280;10516;51.518;9.864;2024-03-22T01:44:13;99269.50;;;8.15;78.08
20710;BME280;10516;51.518;9.864;2024-03-22T01:46:42;99265.38;;;8.01;78.22
20710;BME280;10516;51.518;9.864;2024-03-22T01:49:10;99276.88;;;7.77;80.05
20710;BME280;10516;51.518;9.864;2024-03-22T01:51:37;99278.38;;;7.91;79.25
20710;BME280;10516;51.518;9.864;2024-03-22T01:54:03;99271.66;;;8.07;79.15
20710;BME280;10516;51.518;9.864;2024-03-22T01:56:29;99264.69;;;8.24;78.30
20710;BME280;10516;51.518;9.864;2024-03-22T01:58:56;99259.31;;;7.94;79.34
20710;BME280;10516;51.518;9.864;2024-03-22T02:01:21;99263.38;;;8.15;78.68
20710;BME280;10516;51.518;9.864;2024-03-22T02:03:47;99249.50;;;8.13;79.04
20710;BME280;10516;51.518;9.864;2024-03-22T02:06:12;99234.78;;;8.10;78.70
20710;BME280;10516;51.518;9.864;2024-03-22T02:08:38;99250.09;;;8.33;78.61
20710;BME280;10516;51.518;9.864;2024-03-22T02:11:05;99228.25;;;8.31;78.17
20710;BME280;10516;51.518;9.864;2024-03-22T02:13:31;99224.53;;;7.96;78.75
20710;BME280;10516;51.518;9.864;2024-03-22T02:15:56;99213.63;;;7.86;79.39
20710;BME280;10516;51.518;9.864;2024-03-22T02:18:22;99204.84;;;8.03;79.28
20710;BME280;10516;51.518;9.864;2024-03-22T02:20:48;99199.44;;;7.92;79.16
20710;BME280;10516;51.518;9.864;2024-03-22T02:23:13;99171.16;;;7.97;78.73
20710;BME280;10516;51.518;9.864;2024-03-22T02:25:38;99185.78;;;8.06;79.26
20710;BME280;10516;51.518;9.864;2024-03-22T02:28:04;99185.34;;;7.91;79.72
20710;BME280;10516;51.518;9.864;2024-03-22T02:30:30;99184.91;;;7.94;79.46
20710;BME280;10516;51.518;9.864;2024-03-22T02:32:55;99188.50;;;8.00;79.43
20710;BME280;10516;51.518;9.864;2024-03-22T02:35:20;99195.91;;;7.98;79.28
20710;BME280;10516;51.518;9.864;2024-03-22T02:37:46;99178.94;;;7.99;79.48
20710;BME280;10516;51.518;9.864;2024-03-22T02:40:11;99184.97;;;8.06;79.80
20710;BME280;10516;51.518;9.864;2024-03-22T02:42:37;99172.88;;;7.92;79.84
20710;BME280;10516;51.518;9.864;2024-03-22T02:45:03;99189.56;;;7.99;79.18
20710;BME280;10516;51.518;9.864;2024-03-22T02:47:28;99180.41;;;7.95;79.70
20710;BME280;10516;51.518;9.864;2024-03-22T02:49:53;99166.47;;;7.99;80.00
20710;BME280;10516;51.518;9.864;2024-03-22T02:52:19;99188.66;;;8.05;80.48
20710;BME280;10516;51.518;9.864;2024-03-22T02:54:44;99186.66;;;8.18;79.48
20710;BME280;10516;51.518;9.864;2024-03-22T02:57:09;99182.09;;;8.07;79.50
20710;BME280;10516;51.518;9.864;2024-03-22T02:59:35;99182.69;;;8.09;79.89
20710;BME280;10516;51.518;9.864;2024-03-22T03:02:00;99183.13;;;8.06;80.03
20710;BME280;10516;51.518;9.864;2024-03-22T03:04:25;99192.22;;;7.99;80.32
20710;BME280;10516;51.518;9.864;2024-03-22T03:06:51;99178.69;;;8.00;80.80
20710;BME280;10516;51.518;9.864;2024-03-22T03:09:16;99143.88;;;7.90;79.66
20710;BME280;10516;51.518;9.864;2024-03-22T03:11:42;99168.66;;;8.02;80.03
20710;BME280;10516;51.518;9.864;2024-03-22T03:14:07;99159.84;;;8.02;80.30
20710;BME280;10516;51.518;9.864;2024-03-22T03:16:32;99139.25;;;7.97;80.33
20710;BME280;10516;51.518;9.864;2024-03-22T03:18:58;99146.13;;;8.05;79.48
20710;BME280;10516;51.518;9.864;2024-03-22T03:21:23;99146.88;;;8.12;79.97
20710;BME280;10516;51.518;9.864;2024-03-22T03:23:48;99134.00;;;8.09;79.94
20710;BME280;10516;51.518;9.864;2024-03-22T03:26:14;99114.56;;;7.97;79.58
20710;BME280;10516;51.518;9.864;2024-03-22T03:28:39;99136.13;;;8.18;79.28
20710;BME280;10516;51.518;9.864;2024-03-22T03:31:04;99138.31;;;8.21;78.59
20710;BME280;10516;51.518;9.864;2024-03-22T03:33:30;99138.56;;;8.20;78.80
20710;BME280;10516;51.518;9.864;2024-03-22T03:35:56;99128.59;;;8.15;79.32
20710;BME280;10516;51.518;9.864;2024-03-22T03:38:21;99130.72;;;8.25;79.28
20710;BME280;10516;51.518;9.864;2024-03-22T03:40:47;99134.41;;;8.24;78.28
20710;BME280;10516;51.518;9.864;2024-03-22T03:43:13;99108.28;;;8.21;78.69
20710;BME280;10516;51.518;9.864;2024-03-22T03:45:38;99131.84;;;8.17;78.79
20710;BME280;10516;51.518;9.864;2024-03-22T03:48:03;99125.00;;;8.10;79.98
20710;BME280;10516;51.518;9.864;2024-03-22T03:50:29;99123.19;;;8.22;79.59
20710;BME280;10516;51.518;9.864;2024-03-22T03:52:54;99105.63;;;8.21;77.98
20710;BME280;10516;51.518;9.864;2024-03-22T03:55:20;99107.81;;;8.24;79.15
20710;BME280;10516;51.518;9.864;2024-03-22T03:57:45;99109.75;;;8.17;79.34
20710;BME280;10516;51.518;9.864;2024-03-22T04:00:11;99079.69;;;8.05;79.29
20710;BME280;10516;51.518;9.864;2024-03-22T04:02:36;99097.59;;;8.27;78.70
20710;BME280;10516;51.518;9.864;2024-03-22T04:05:01;99099.25;;;8.22;78.50
20710;BME280;10516;51.518;9.864;2024-03-22T04:07:27;99096.25;;;8.18;78.81
20710;BME280;10516;51.518;9.864;2024-03-22T04:09:54;99082.66;;;8.26;78.47
20710;BME280;10516;51.518;9.864;2024-03-22T04:12:19;99094.34;;;8.25;79.26
20710;BME280;10516;51.518;9.864;2024-03-22T04:14:44;99089.22;;;8.24;79.55
20710;BME280;10516;51.518;9.864;2024-03-22T04:17:10;99081.13;;;8.19;78.85
20710;BME280;10516;51.518;9.864;2024-03-22T04:19:35;99103.69;;;8.28;79.13
20710;BME280;10516;51.518;9.864;2024-03-22T04:22:01;99096.78;;;8.27;78.81
20710;BME280;10516;51.518;9.864;2024-03-22T04:24:26;99094.63;;;8.47;78.93
20710;BME280;10516;51.518;9.864;2024-03-22T04:26:51;99082.44;;;8.40;78.37
20710;BME280;10516;51.518;9.864;2024-03-22T04:29:17;99080.50;;;8.47;78.70
20710;BME280;10516;51.518;9.864;2024-03-22T04:31:42;99091.28;;;8.52;78.71
20710;BME280;10516;51.518;9.864;2024-03-22T04:34:07;99067.88;;;8.30;79.21
20710;BME280;10516;51.518;9.864;2024-03-22T04:36:33;99070.53;;;8.30;79.35
20710;BME280;10516;51.518;9.864;2024-03-22T04:38:59;99054.81;;;8.29;78.85
20710;BME280;10516;51.518;9.864;2024-03-22T04:41:24;99071.56;;;8.29;79.44
20710;BME280;10516;51.518;9.864;2024-03-22T04:43:49;99061.38;;;8.26;79.29
20710;BME280;10516;51.518;9.864;2024-03-22T04:46:15;99059.69;;;8.32;80.19
20710;BME280;10516;51.518;9.864;2024-03-22T04:48:40;99032.94;;;7.97;79.86
20710;BME280;10516;51.518;9.864;2024-03-22T04:51:05;99064.91;;;8.39;78.86
20710;BME280;10516;51.518;9.864;2024-03-22T04:53:31;99066.84;;;8.32;79.64
20710;BME280;10516;51.518;9.864;2024-03-22T04:55:56;99063.97;;;8.45;79.44
20710;BME280;10516;51.518;9.864;2024-03-22T04:58:22;99062.25;;;8.39;79.58
20710;BME280;10516;51.518;9.864;2024-03-22T05:00:48;99060.84;;;8.36;79.28
20710;BME280;10516;51.518;9.864;2024-03-22T05:03:15;99058.38;;;8.35;79.58
20710;BME280;10516;51.518;9.864;2024-03-22T05:05:41;99041.88;;;8.03;80.19
20710;BME280;10516;51.518;9.864;2024-03-22T05:08:07;99048.84;;;8.15;80.83
20710;BME280;10516;51.518;9.864;2024-03-22T05:10:33;99022.09;;;7.57;81.51
20710;BME280;10516;51.518;9.864;2024-03-22T05:12:59;99029.41;;;7.74;82.51
20710;BME280;10516;51.518;9.864;2024-03-22T05:15:24;99040.81;;;8.04;81.74
20710;BME280;10516;51.518;9.864;2024-03-22T05:17:58;99029.31;;;7.69;82.53
20710;BME280;10516;51.518;9.864;2024-03-22T05:20:23;99030.66;;;8.01;81.26
20710;BME280;10516;51.518;9.864;2024-03-22T05:22:49;99010.97;;;7.79;81.14
20710;BME280;10516;51.518;9.864;2024-03-22T05:25:14;99029.34;;;7.32;84.52
20710;BME280;10516;51.518;9.864;2024-03-22T05:27:41;99017.13;;;6.77;88.16
20710;BME280;10516;51.518;9.864;2024-03-22T05:30:07;99014.53;;;6.89;87.66
20710;BME280;10516;51.518;9.864;2024-03-22T05:32:33;99013.53;;;7.85;83.11
20710;BME280;10516;51.518;9.864;2024-03-22T05:34:58;99015.16;;;7.86;82.47
20710;BME280;10516;51.518;9.864;2024-03-22T05:37:23;99009.94;;;7.80;82.96
20710;BME280;10516;51.518;9.864;2024-03-22T05:39:49;99006.59;;;7.54;84.17
20710;BME280;10516;51.518;9.864;2024-03-22T05:42:14;98985.38;;;7.36;86.29
20710;BME280;10516;51.518;9.864;2024-03-22T05:44:39;98985.63;;;7.17;87.28
20710;BME280;10516;51.518;9.864;2024-03-22T05:47:05;98993.16;;;7.49;85.26
20710;BME280;10516;51.518;9.864;2024-03-22T05:49:30;98993.66;;;7.28;87.49
20710;BME280;10516;51.518;9.864;2024-03-22T05:51:56;98990.81;;;7.12;89.22
20710;BME280;10516;51.518;9.864;2024-03-22T05:54:21;98954.06;;;6.79;90.72
20710;BME280;10516;51.518;9.864;2024-03-22T05:56:46;98993.47;;;6.94;91.70
20710;BME280;10516;51.518;9.864;2024-03-22T05:59:12;98992.31;;;7.37;88.40
20710;BME280;10516;51.518;9.864;2024-03-22T06:01:37;99002.63;;;7.75;85.44
20710;BME280;10516;51.518;9.864;2024-03-22T06:04:04;98983.06;;;7.99;83.66
20710;BME280;10516;51.518;9.864;2024-03-22T06:06:31;98978.22;;;8.19;81.88
20710;BME280;10516;51.518;9.864;2024-03-22T06:08:56;98986.50;;;8.29;81.48
20710;BME280;10516;51.518;9.864;2024-03-22T06:11:25;98951.75;;;8.01;82.16
20710;BME280;10516;51.518;9.864;2024-03-22T06:13:50;98989.13;;;8.41;81.02
20710;BME280;10516;51.518;9.864;2024-03-22T06:16:16;98990.53;;;8.55;80.52
20710;BME280;10516;51.518;9.864;2024-03-22T06:18:41;98988.69;;;8.44;81.48
20710;BME280;10516;51.518;9.864;2024-03-22T06:21:07;98987.19;;;8.60;80.94
20710;BME280;10516;51.518;9.864;2024-03-22T06:23:32;98977.31;;;8.72;79.76
20710;BME280;10516;51.518;9.864;2024-03-22T06:25:58;98975.59;;;8.54;81.02
20710;BME280;10516;51.518;9.864;2024-03-22T06:28:27;98972.50;;;8.57;80.74
20710;BME280;10516;51.518;9.864;2024-03-22T06:30:53;98950.75;;;8.37;80.91
20710;BME280;10516;51.518;9.864;2024-03-22T06:33:19;98961.28;;;8.32;81.48
20710;BME280;10516;51.518;9.864;2024-03-22T06:35:44;98971.91;;;8.55;81.05
20710;BME280;10516;51.518;9.864;2024-03-22T06:38:10;98980.88;;;8.19;84.10
20710;BME280;10516;51.518;9.864;2024-03-22T06:40:35;98959.91;;;7.77;87.42
20710;BME280;10516;51.518;9.864;2024-03-22T06:43:01;98981.78;;;7.90;86.91
20710;BME280;10516;51.518;9.864;2024-03-22T06:45:26;98972.22;;;8.24;83.59
20710;BME280;10516;51.518;9.864;2024-03-22T06:47:51;98977.56;;;8.59;81.32
20710;BME280;10516;51.518;9.864;2024-03-22T06:50:17;98969.13;;;8.62;81.05
20710;BME280;10516;51.518;9.864;2024-03-22T06:52:43;98967.50;;;8.84;79.88
20710;BME280;10516;51.518;9.864;2024-03-22T06:55:08;98958.16;;;8.58;82.02
20710;BME280;10516;51.518;9.864;2024-03-22T06:57:34;98964.84;;;8.38;84.45
20710;BME280;10516;51.518;9.864;2024-03-22T06:59:59;98958.25;;;8.63;81.69
20710;BME280;10516;51.518;9.864;2024-03-22T07:02:25;98937.66;;;8.24;86.74
20710;BME280;10516;51.518;9.864;2024-03-22T07:04:51;98943.34;;;8.39;84.68
20710;BME280;10516;51.518;9.864;2024-03-22T07:07:17;98951.78;;;8.71;82.43
20710;BME280;10516;51.518;9.864;2024-03-22T07:09:42;98955.13;;;8.78;81.95
20710;BME280;10516;51.518;9.864;2024-03-22T07:12:08;98956.06;;;8.60;83.67
20710;BME280;10516;51.518;9.864;2024-03-22T07:14:33;98946.44;;;8.71;82.49
20710;BME280;10516;51.518;9.864;2024-03-22T07:16:59;98950.84;;;8.65;82.80
20710;BME280;10516;51.518;9.864;2024-03-22T07:19:24;98937.91;;;8.69;82.08
20710;BME280;10516;51.518;9.864;2024-03-22T07:21:49;98944.34;;;8.84;81.12
20710;BME280;10516;51.518;9.864;2024-03-22T07:24:15;98922.38;;;8.66;81.79
20710;BME280;10516;51.518;9.864;2024-03-22T07:26:40;98910.72;;;8.55;84.19
20710;BME280;10516;51.518;9.864;2024-03-22T07:29:06;98945.19;;;8.73;84.42
20710;BME280;10516;51.518;9.864;2024-03-22T07:31:32;98919.03;;;8.59;84.96
20710;BME280;10516;51.518;9.864;2024-03-22T07:33:57;98931.50;;;8.81;84.08
20710;BME280;10516;51.518;9.864;2024-03-22T07:36:22;98933.31;;;9.04;83.06
20710;BME280;10516;51.518;9.864;2024-03-22T07:38:48;98914.59;;;8.87;82.87
20710;BME280;10516;51.518;9.864;2024-03-22T07:41:14;98915.38;;;8.99;83.45
20710;BME280;10516;51.518;9.864;2024-03-22T07:43:40;98925.75;;;9.13;83.01
20710;BME280;10516;51.518;9.864;2024-03-22T07:46:05;98939.56;;;9.26;83.82
20710;BME280;10516;51.518;9.864;2024-03-22T07:48:31;98940.38;;;9.27;83.22
20710;BME280;10516;51.518;9.864;2024-03-22T07:50:58;98863.34;;;8.80;84.20
20710;BME280;10516;51.518;9.864;2024-03-22T07:53:23;98923.13;;;9.29;83.24
20710;BME280;10516;51.518;9.864;2024-03-22T07:55:48;98935.41;;;9.30;82.56
20710;BME280;10516;51.518;9.864;2024-03-22T07:58:14;98937.50;;;9.28;84.33
20710;BME280;10516;51.518;9.864;2024-03-22T08:00:39;98923.69;;;9.31;83.82
20710;BME280;10516;51.518;9.864;2024-03-22T08:03:05;98920.19;;;9.42;82.50
20710;BME280;10516;51.518;9.864;2024-03-22T08:05:31;98913.25;;;9.41;82.55
20710;BME280;10516;51.518;9.864;2024-03-22T08:07:56;98914.09;;;9.58;82.07
20710;BME280;10516;51.518;9.864;2024-03-22T08:10:21;98904.84;;;9.49;82.48
20710;BME280;10516;51.518;9.864;2024-03-22T08:12:48;98913.69;;;9.66;81.35
20710;BME280;10516;51.518;9.864;2024-03-22T08:15:14;98911.34;;;9.70;81.91
20710;BME280;10516;51.518;9.864;2024-03-22T08:17:40;98907.06;;;9.69;82.67
20710;BME280;10516;51.518;9.864;2024-03-22T08:20:06;98901.38;;;9.65;81.06
20710;BME280;10516;51.518;9.864;2024-03-22T08:22:32;98887.50;;;9.63;82.42
20710;BME280;10516;51.518;9.864;2024-03-22T08:24:57;98895.03;;;9.83;81.74
20710;BME280;10516;51.518;9.864;2024-03-22T08:27:22;98884.84;;;9.97;80.88
20710;BME280;10516;51.518;9.864;2024-03-22T08:29:48;98890.03;;;9.87;81.05
20710;BME280;10516;51.518;9.864;2024-03-22T08:32:13;98899.13;;;10.07;80.60
20710;BME280;10516;51.518;9.864;2024-03-22T08:34:39;98880.63;;;10.01;80.52
20710;BME280;10516;51.518;9.864;2024-03-22T08:37:04;98895.59;;;10.18;80.14
20710;BME280;10516;51.518;9.864;2024-03-22T08:39:30;98888.66;;;10.17;80.56
20710;BME280;10516;51.518;9.864;2024-03-22T08:41:55;98881.28;;;10.24;80.43
20710;BME280;10516;51.518;9.864;2024-03-22T08:44:21;98855.34;;;10.03;80.65
20710;BME280;10516;51.518;9.864;2024-03-22T08:46:47;98876.72;;;10.20;80.97
20710;BME280;10516;51.518;9.864;2024-03-22T08:49:12;98872.84;;;10.11;81.22
20710;BME280;10516;51.518;9.864;2024-03-22T08:51:38;98862.31;;;10.04;81.51
20710;BME280;10516;51.518;9.864;2024-03-22T08:54:03;98833.75;;;10.05;80.79
20710;BME280;10516;51.518;9.864;2024-03-22T08:56:29;98868.53;;;10.26;80.64
20710;BME280;10516;51.518;9.864;2024-03-22T08:58:55;98837.03;;;10.07;81.31
20710;BME280;10516;51.518;9.864;2024-03-22T09:01:21;98833.28;;;10.08;80.64
20710;BME280;10516;51.518;9.864;2024-03-22T09:03:47;98868.38;;;10.33;80.75
20710;BME280;10516;51.518;9.864;2024-03-22T09:06:14;98843.72;;;10.26;80.42
20710;BME280;10516;51.518;9.864;2024-03-22T09:08:40;98832.09;;;10.15;81.07
20710;BME280;10516;51.518;9.864;2024-03-22T09:11:05;98831.50;;;10.30;80.68
20710;BME280;10516;51.518;9.864;2024-03-22T09:13:31;98842.53;;;10.38;80.40
20710;BME280;10516;51.518;9.864;2024-03-22T09:15:58;98812.19;;;10.23;80.62
20710;BME280;10516;51.518;9.864;2024-03-22T09:18:24;98803.25;;;10.12;80.55
20710;BME280;10516;51.518;9.864;2024-03-22T09:20:49;98824.34;;;10.35;80.36
20710;BME280;10516;51.518;9.864;2024-03-22T09:23:14;98830.38;;;10.47;79.58
20710;BME280;10516;51.518;9.864;2024-03-22T09:25:40;98836.91;;;10.57;79.95
20710;BME280;10516;51.518;9.864;2024-03-22T09:28:05;98823.50;;;10.51;79.50
20710;BME280;10516;51.518;9.864;2024-03-22T09:30:31;98823.78;;;10.55;79.43
20710;BME280;10516;51.518;9.864;2024-03-22T09:32:56;98813.38;;;10.53;80.77
20710;BME280;10516;51.518;9.864;2024-03-22T09:35:21;98832.75;;;10.66;79.11
20710;BME280;10516;51.518;9.864;2024-03-22T09:37:47;98836.34;;;10.76;79.45
20710;BME280;10516;51.518;9.864;2024-03-22T09:40:12;98823.56;;;10.78;78.75
20710;BME280;10516;51.518;9.864;2024-03-22T09:42:38;98822.25;;;10.81;79.37
20710;BME280;10516;51.518;9.864;2024-03-22T09:45:08;98833.91;;;10.96;79.09
20710;BME280;10516;51.518;9.864;2024-03-22T09:47:34;98801.28;;;10.68;79.09
20710;BME280;10516;51.518;9.864;2024-03-22T09:50:01;98813.13;;;10.77;79.79
20710;BME280;10516;51.518;9.864;2024-03-22T09:52:28;98815.59;;;10.83;79.43
20710;BME280;10516;51.518;9.864;2024-03-22T09:54:53;98812.22;;;10.93;79.81
20710;BME280;10516;51.518;9.864;2024-03-22T09:57:20;98784.72;;;10.66;80.94
20710;BME280;10516;51.518;9.864;2024-03-22T09:59:46;98804.72;;;10.90;80.35
20710;BME280;10516;51.518;9.864;2024-03-22T10:02:12;98803.78;;;10.79;80.86
20710;BME280;10516;51.518;9.864;2024-03-22T10:04:39;98781.66;;;10.79;80.26
20710;BME280;10516;51.518;9.864;2024-03-22T10:07:05;98788.13;;;10.88;80.49
20710;BME280;10516;51.518;9.864;2024-03-22T10:09:32;98774.09;;;10.97;79.69
20710;BME280;10516;51.518;9.864;2024-03-22T10:11:57;98790.78;;;11.14;79.25
20710;BME280;10516;51.518;9.864;2024-03-22T10:14:23;98783.59;;;11.15;78.96
20710;BME280;10516;51.518;9.864;2024-03-22T10:16:52;98783.09;;;11.18;79.15
20710;BME280;10516;51.518;9.864;2024-03-22T10:19:19;98793.88;;;11.01;79.42
20710;BME280;10516;51.518;9.864;2024-03-22T10:21:45;98789.06;;;10.98;79.88
20710;BME280;10516;51.518;9.864;2024-03-22T10:24:11;98769.41;;;11.09;79.45
20710;BME280;10516;51.518;9.864;2024-03-22T10:26:36;98787.09;;;11.20;79.22
20710;BME280;10516;51.518;9.864;2024-03-22T10:29:06;98769.09;;;11.06;79.40
20710;BME280;10516;51.518;9.864;2024-03-22T10:31:31;98770.28;;;11.20;80.04
20710;BME280;10516;51.518;9.864;2024-03-22T10:33:58;98772.28;;;11.35;79.29
20710;BME280;10516;51.518;9.864;2024-03-22T10:36:24;98772.00;;;11.31;79.32
20710;BME280;10516;51.518;9.864;2024-03-22T10:38:50;98745.00;;;11.32;79.29
20710;BME280;10516;51.518;9.864;2024-03-22T10:41:17;98722.50;;;11.23;78.87
20710;BME280;10516;51.518;9.864;2024-03-22T10:43:42;98737.22;;;11.26;79.26
20710;BME280;10516;51.518;9.864;2024-03-22T10:46:08;98753.66;;;11.45;79.09
20710;BME280;10516;51.518;9.864;2024-03-22T10:48:34;98753.94;;;11.48;79.02
20710;BME280;10516;51.518;9.864;2024-03-22T10:51:01;98756.19;;;11.29;79.73
20710;BME280;10516;51.518;9.864;2024-03-22T10:53:27;98742.72;;;11.46;79.29
20710;BME280;10516;51.518;9.864;2024-03-22T10:55:54;98709.84;;;11.46;79.08
20710;BME280;10516;51.518;9.864;2024-03-22T10:58:22;98730.72;;;11.49;79.05
20710;BME280;10516;51.518;9.864;2024-03-22T11:00:50;98713.88;;;11.48;79.72
20710;BME280;10516;51.518;9.864;2024-03-22T11:03:19;98733.03;;;11.72;78.01
20710;BME280;10516;51.518;9.864;2024-03-22T11:05:50;98706.56;;;11.75;77.81
20710;BME280;10516;51.518;9.864;2024-03-22T11:08:29;98714.81;;;11.69;78.29
20710;BME280;10516;51.518;9.864;2024-03-22T11:10:56;98693.72;;;11.72;77.91
20710;BME280;10516;51.518;9.864;2024-03-22T11:13:22;98715.22;;;11.92;78.02
20710;BME280;10516;51.518;9.864;2024-03-22T11:15:50;98705.56;;;11.86;78.14
20710;BME280;10516;51.518;9.864;2024-03-22T11:18:19;98670.47;;;11.73;78.92
20710;BME280;10516;51.518;9.864;2024-03-22T11:20:45;98686.06;;;11.91;78.03
20710;BME280;10516;51.518;9.864;2024-03-22T11:23:10;98688.75;;;11.96;77.91
20710;BME280;10516;51.518;9.864;2024-03-22T11:25:36;98682.16;;;12.14;77.84
20710;BME280;10516;51.518;9.864;2024-03-22T11:28:02;98670.31;;;11.99;77.05
20710;BME280;10516;51.518;9.864;2024-03-22T11:30:32;98650.78;;;11.94;77.67
20710;BME280;10516;51.518;9.864;2024-03-22T11:32:57;98668.19;;;12.07;77.25
20710;BME280;10516;51.518;9.864;2024-03-22T11:35:23;98640.41;;;12.08;76.68
20710;BME280;10516;51.518;9.864;2024-03-22T11:37:49;98658.56;;;12.11;77.24
20710;BME280;10516;51.518;9.864;2024-03-22T11:40:15;98657.22;;;12.03;77.54
20710;BME280;10516;51.518;9.864;2024-03-22T11:42:46;98666.34;;;12.07;76.79
20710;BME280;10516;51.518;9.864;2024-03-22T11:45:14;98634.19;;;11.97;76.34
20710;BME280;10516;51.518;9.864;2024-03-22T11:47:40;98637.91;;;11.86;77.03
20710;BME280;10516;51.518;9.864;2024-03-22T11:50:06;98630.44;;;11.93;77.33
20710;BME280;10516;51.518;9.864;2024-03-22T11:52:31;98664.47;;;12.08;77.06
20710;BME280;10516;51.518;9.864;2024-03-22T11:54:57;98643.59;;;12.04;77.27
20710;BME280;10516;51.518;9.864;2024-03-22T11:57:23;98654.84;;;12.17;76.92
20710;BME280;10516;51.518;9.864;2024-03-22T11:59:49;98617.88;;;11.93;77.51
20710;BME280;10516;51.518;9.864;2024-03-22T12:02:15;98618.19;;;12.17;76.78
20710;BME280;10516;51.518;9.864;2024-03-22T12:04:47;98625.16;;;12.23;77.17
20710;BME280;10516;51.518;9.864;2024-03-22T12:07:13;98625.19;;;12.33;76.81
20710;BME280;10516;51.518;9.864;2024-03-22T12:09:40;98620.13;;;12.37;77.05
20710;BME280;10516;51.518;9.864;2024-03-22T12:12:08;98618.78;;;12.49;77.21
20710;BME280;10516;51.518;9.864;2024-03-22T12:14:34;98618.00;;;12.49;76.65
20710;BME280;10516;51.518;9.864;2024-03-22T12:17:00;98573.56;;;12.48;76.22
20710;BME280;10516;51.518;9.864;2024-03-22T12:19:25;98581.56;;;12.78;75.30
20710;BME280;10516;51.518;9.864;2024-03-22T12:21:51;98569.28;;;12.72;75.64
20710;BME280;10516;51.518;9.864;2024-03-22T12:24:17;98575.69;;;12.81;74.94
20710;BME280;10516;51.518;9.864;2024-03-22T12:26:42;98592.28;;;13.18;74.37
20710;BME280;10516;51.518;9.864;2024-03-22T12:29:07;98590.66;;;13.27;73.98
20710;BME280;10516;51.518;9.864;2024-03-22T12:31:34;98585.25;;;13.37;73.51
20710;BME280;10516;51.518;9.864;2024-03-22T12:34:00;98563.63;;;13.09;73.49
20710;BME280;10516;51.518;9.864;2024-03-22T12:36:25;98560.66;;;13.25;73.34
20710;BME280;10516;51.518;9.864;2024-03-22T12:38:50;98533.09;;;12.95;73.70
20710;BME280;10516;51.518;9.864;2024-03-22T12:41:16;98569.72;;;13.39;73.28
20710;BME280;10516;51.518;9.864;2024-03-22T12:43:41;98568.13;;;13.38;73.18
20710;BME280;10516;51.518;9.864;2024-03-22T12:46:07;98573.97;;;13.45;72.78
20710;BME280;10516;51.518;9.864;2024-03-22T12:48:33;98577.72;;;13.49;72.33
20710;BME280;10516;51.518;9.864;2024-03-22T12:50:59;98564.88;;;13.41;72.75
20710;BME280;10516;51.518;9.864;2024-03-22T12:53:25;98562.41;;;13.55;72.69
20710;BME280;10516;51.518;9.864;2024-03-22T12:55:50;98557.34;;;13.48;73.10
20710;BME280;10516;51.518;9.864;2024-03-22T12:58:16;98561.09;;;13.52;72.78
20710;BME280;10516;51.518;9.864;2024-03-22T13:00:41;98515.34;;;13.24;72.85